NC State University, North Carolina
Current Conditions -  °F | °C
As of 3:51 PM on Friday 24 Oct 2014 (Local Time) from KRDU Reporting Station
Broken Clouds Broken Clouds  
Wind Chill: 70°   Ceiling: 21000
Heat Index: 70°   Visibility: 10mi
Dew Point: 46°   Wind: 7mph
Humidity: 42%   Direction: 230°SW
Pressure: 29.96"   Gusts: NA
Location:  35.8072°N, 78.7126°W
Report Text: KRDU 241951Z 23006KT 10SM BKN210 BKN250 21/08 A2996 RMK AO2 SLP145 T02110078 $
Loading
Personal Weather Stations






























Interactive Weather Map
Tropical Storm Tracking
New forecast layout! Learn more

10-Day Weather Forecast

Advertisements
Track Severe Weather on mobile